sensor_id;sensor_type;location;lat;lon;timestamp;P1;durP1;ratioP1;P2;durP2;ratioP2
41627;SDS011;27321;50.816;6.054;2024-03-25T00:02:13;3.13;;;1.67;;
41627;SDS011;27321;50.816;6.054;2024-03-25T00:05:18;3.07;;;1.40;;
41627;SDS011;27321;50.816;6.054;2024-03-25T00:08:22;2.80;;;1.20;;
41627;SDS011;27321;50.816;6.054;2024-03-25T00:11:23;6.07;;;2.00;;
41627;SDS011;27321;50.816;6.054;2024-03-25T00:14:24;4.87;;;2.27;;
41627;SDS011;27321;50.816;6.054;2024-03-25T00:17:25;6.23;;;1.83;;
41627;SDS011;27321;50.816;6.054;2024-03-25T00:20:26;3.25;;;1.38;;
41627;SDS011;27321;50.816;6.054;2024-03-25T00:23:27;3.23;;;1.73;;
41627;SDS011;27321;50.816;6.054;2024-03-25T00:26:28;4.63;;;1.93;;
41627;SDS011;27321;50.816;6.054;2024-03-25T00:29:29;3.83;;;1.30;;
41627;SDS011;27321;50.816;6.054;2024-03-25T00:32:30;6.90;;;1.70;;
41627;SDS011;27321;50.816;6.054;2024-03-25T00:35:34;2.83;;;1.42;;
41627;SDS011;27321;50.816;6.054;2024-03-25T00:38:35;5.13;;;1.87;;
41627;SDS011;27321;50.816;6.054;2024-03-25T00:41:36;4.40;;;1.70;;
41627;SDS011;27321;50.816;6.054;2024-03-25T00:44:37;5.53;;;1.73;;
41627;SDS011;27321;50.816;6.054;2024-03-25T00:47:38;3.50;;;1.70;;
41627;SDS011;27321;50.816;6.054;2024-03-25T00:50:39;4.50;;;1.90;;
41627;SDS011;27321;50.816;6.054;2024-03-25T00:53:40;3.50;;;2.07;;
41627;SDS011;27321;50.816;6.054;2024-03-25T00:56:42;6.38;;;2.03;;
41627;SDS011;27321;50.816;6.054;2024-03-25T00:59:44;2.63;;;1.50;;
41627;SDS011;27321;50.816;6.054;2024-03-25T01:02:45;3.83;;;2.27;;
41627;SDS011;27321;50.816;6.054;2024-03-25T01:05:46;3.53;;;1.90;;
41627;SDS011;27321;50.816;6.054;2024-03-25T01:08:47;3.20;;;2.00;;
41627;SDS011;27321;50.816;6.054;2024-03-25T01:11:48;5.63;;;1.97;;
41627;SDS011;27321;50.816;6.054;2024-03-25T01:14:49;2.90;;;1.67;;
41627;SDS011;27321;50.816;6.054;2024-03-25T01:17:49;7.23;;;1.90;;
41627;SDS011;27321;50.816;6.054;2024-03-25T01:20:50;5.82;;;2.10;;
41627;SDS011;27321;50.816;6.054;2024-03-25T01:23:51;3.43;;;1.77;;
41627;SDS011;27321;50.816;6.054;2024-03-25T01:26:52;4.40;;;1.87;;
41627;SDS011;27321;50.816;6.054;2024-03-25T01:29:53;3.03;;;1.77;;
41627;SDS011;27321;50.816;6.054;2024-03-25T01:32:54;6.40;;;1.67;;
41627;SDS011;27321;50.816;6.054;2024-03-25T01:35:55;4.30;;;1.97;;
41627;SDS011;27321;50.816;6.054;2024-03-25T01:38:56;5.20;;;1.50;;
41627;SDS011;27321;50.816;6.054;2024-03-25T01:41:57;4.30;;;1.93;;
41627;SDS011;27321;50.816;6.054;2024-03-25T01:44:58;6.60;;;2.23;;
41627;SDS011;27321;50.816;6.054;2024-03-25T01:48:00;5.10;;;1.67;;
41627;SDS011;27321;50.816;6.054;2024-03-25T01:51:05;3.43;;;1.77;;
41627;SDS011;27321;50.816;6.054;2024-03-25T01:54:06;4.90;;;2.10;;
41627;SDS011;27321;50.816;6.054;2024-03-25T01:57:08;3.78;;;1.52;;
41627;SDS011;27321;50.816;6.054;2024-03-25T02:00:09;2.50;;;1.35;;
41627;SDS011;27321;50.816;6.054;2024-03-25T02:03:20;4.83;;;1.50;;
41627;SDS011;27321;50.816;6.054;2024-03-25T02:06:22;2.77;;;1.23;;
41627;SDS011;27321;50.816;6.054;2024-03-25T02:09:27;3.53;;;1.50;;
41627;SDS011;27321;50.816;6.054;2024-03-25T02:12:29;3.45;;;1.75;;
41627;SDS011;27321;50.816;6.054;2024-03-25T02:15:34;2.83;;;1.33;;
41627;SDS011;27321;50.816;6.054;2024-03-25T02:18:36;3.73;;;1.40;;
41627;SDS011;27321;50.816;6.054;2024-03-25T02:21:36;3.63;;;1.67;;
41627;SDS011;27321;50.816;6.054;2024-03-25T02:24:37;1.87;;;1.20;;
41627;SDS011;27321;50.816;6.054;2024-03-25T02:27:40;3.90;;;1.50;;
41627;SDS011;27321;50.816;6.054;2024-03-25T02:30:40;2.07;;;1.00;;
41627;SDS011;27321;50.816;6.054;2024-03-25T02:33:42;3.00;;;1.52;;
41627;SDS011;27321;50.816;6.054;2024-03-25T02:36:43;3.80;;;1.60;;
41627;SDS011;27321;50.816;6.054;2024-03-25T02:39:44;1.80;;;1.30;;
41627;SDS011;27321;50.816;6.054;2024-03-25T02:42:45;3.25;;;1.27;;
41627;SDS011;27321;50.816;6.054;2024-03-25T02:45:46;3.33;;;1.80;;
41627;SDS011;27321;50.816;6.054;2024-03-25T02:48:47;3.08;;;1.42;;
41627;SDS011;27321;50.816;6.054;2024-03-25T02:51:48;3.43;;;1.40;;
41627;SDS011;27321;50.816;6.054;2024-03-25T02:54:49;1.63;;;1.13;;
41627;SDS011;27321;50.816;6.054;2024-03-25T02:57:50;6.97;;;2.00;;
41627;SDS011;27321;50.816;6.054;2024-03-25T03:00:51;4.03;;;1.50;;
41627;SDS011;27321;50.816;6.054;2024-03-25T03:03:52;2.93;;;1.50;;
41627;SDS011;27321;50.816;6.054;2024-03-25T03:06:53;2.43;;;1.53;;
41627;SDS011;27321;50.816;6.054;2024-03-25T03:09:53;2.70;;;1.60;;
41627;SDS011;27321;50.816;6.054;2024-03-25T03:12:55;2.88;;;2.00;;
41627;SDS011;27321;50.816;6.054;2024-03-25T03:15:55;3.30;;;2.00;;
41627;SDS011;27321;50.816;6.054;2024-03-25T03:18:56;3.95;;;1.65;;
41627;SDS011;27321;50.816;6.054;2024-03-25T03:21:57;4.20;;;2.10;;
41627;SDS011;27321;50.816;6.054;2024-03-25T03:24:58;3.10;;;1.70;;
41627;SDS011;27321;50.816;6.054;2024-03-25T03:27:59;2.33;;;1.43;;
41627;SDS011;27321;50.816;6.054;2024-03-25T03:31:02;3.17;;;1.50;;
41627;SDS011;27321;50.816;6.054;2024-03-25T03:34:08;2.53;;;1.60;;
41627;SDS011;27321;50.816;6.054;2024-03-25T03:37:09;3.23;;;1.43;;
41627;SDS011;27321;50.816;6.054;2024-03-25T03:40:09;2.37;;;1.57;;
41627;SDS011;27321;50.816;6.054;2024-03-25T03:43:11;4.03;;;2.10;;
41627;SDS011;27321;50.816;6.054;2024-03-25T03:46:12;2.67;;;1.77;;
41627;SDS011;27321;50.816;6.054;2024-03-25T03:49:13;3.13;;;1.73;;
41627;SDS011;27321;50.816;6.054;2024-03-25T03:52:14;2.90;;;1.90;;
41627;SDS011;27321;50.816;6.054;2024-03-25T03:55:15;2.27;;;1.47;;
41627;SDS011;27321;50.816;6.054;2024-03-25T03:58:16;2.30;;;1.77;;
41627;SDS011;27321;50.816;6.054;2024-03-25T04:01:17;1.73;;;1.30;;
41627;SDS011;27321;50.816;6.054;2024-03-25T04:04:19;1.98;;;1.40;;
41627;SDS011;27321;50.816;6.054;2024-03-25T04:07:19;1.83;;;1.30;;
41627;SDS011;27321;50.816;6.054;2024-03-25T04:10:26;1.63;;;1.30;;
41627;SDS011;27321;50.816;6.054;2024-03-25T04:13:27;1.63;;;1.43;;
41627;SDS011;27321;50.816;6.054;2024-03-25T04:16:28;3.27;;;1.63;;
41627;SDS011;27321;50.816;6.054;2024-03-25T04:19:30;2.13;;;1.47;;
41627;SDS011;27321;50.816;6.054;2024-03-25T04:22:32;2.25;;;1.33;;
41627;SDS011;27321;50.816;6.054;2024-03-25T04:25:33;3.17;;;1.27;;
41627;SDS011;27321;50.816;6.054;2024-03-25T04:28:35;1.37;;;1.27;;
41627;SDS011;27321;50.816;6.054;2024-03-25T04:31:36;3.47;;;1.60;;
41627;SDS011;27321;50.816;6.054;2024-03-25T04:34:37;2.17;;;1.60;;
41627;SDS011;27321;50.816;6.054;2024-03-25T04:37:38;3.03;;;1.63;;
41627;SDS011;27321;50.816;6.054;2024-03-25T04:40:39;2.63;;;1.27;;
41627;SDS011;27321;50.816;6.054;2024-03-25T04:43:40;1.83;;;1.30;;
41627;SDS011;27321;50.816;6.054;2024-03-25T04:46:41;2.30;;;1.40;;
41627;SDS011;27321;50.816;6.054;2024-03-25T04:49:42;1.90;;;1.60;;
41627;SDS011;27321;50.816;6.054;2024-03-25T04:52:44;2.20;;;1.50;;
41627;SDS011;27321;50.816;6.054;2024-03-25T04:55:44;2.03;;;1.40;;
41627;SDS011;27321;50.816;6.054;2024-03-25T04:58:45;2.27;;;1.60;;
41627;SDS011;27321;50.816;6.054;2024-03-25T05:01:46;2.70;;;1.60;;
41627;SDS011;27321;50.816;6.054;2024-03-25T05:04:47;2.23;;;1.63;;
41627;SDS011;27321;50.816;6.054;2024-03-25T05:07:48;3.03;;;1.63;;
41627;SDS011;27321;50.816;6.054;2024-03-25T05:10:49;2.03;;;1.53;;
41627;SDS011;27321;50.816;6.054;2024-03-25T05:13:51;2.77;;;1.17;;
41627;SDS011;27321;50.816;6.054;2024-03-25T05:16:52;3.27;;;1.50;;
41627;SDS011;27321;50.816;6.054;2024-03-25T05:19:53;2.25;;;1.58;;
41627;SDS011;27321;50.816;6.054;2024-03-25T05:22:54;2.90;;;1.47;;
41627;SDS011;27321;50.816;6.054;2024-03-25T05:25:55;3.83;;;1.87;;
41627;SDS011;27321;50.816;6.054;2024-03-25T05:28:56;2.03;;;1.77;;
41627;SDS011;27321;50.816;6.054;2024-03-25T05:32:01;2.78;;;2.40;;
41627;SDS011;27321;50.816;6.054;2024-03-25T05:35:02;3.47;;;2.27;;
41627;SDS011;27321;50.816;6.054;2024-03-25T05:38:04;3.55;;;2.47;;
41627;SDS011;27321;50.816;6.054;2024-03-25T05:44:07;5.03;;;3.00;;
41627;SDS011;27321;50.816;6.054;2024-03-25T05:47:08;5.97;;;3.90;;
41627;SDS011;27321;50.816;6.054;2024-03-25T05:50:09;10.67;;;5.17;;
41627;SDS011;27321;50.816;6.054;2024-03-25T05:53:10;11.93;;;5.85;;
41627;SDS011;27321;50.816;6.054;2024-03-25T05:56:11;14.13;;;6.55;;
41627;SDS011;27321;50.816;6.054;2024-03-25T05:59:12;12.87;;;7.07;;
41627;SDS011;27321;50.816;6.054;2024-03-25T06:02:14;13.75;;;6.88;;
41627;SDS011;27321;50.816;6.054;2024-03-25T06:05:15;16.80;;;8.07;;
41627;SDS011;27321;50.816;6.054;2024-03-25T06:08:16;12.68;;;6.93;;
41627;SDS011;27321;50.816;6.054;2024-03-25T06:11:24;15.73;;;7.03;;
41627;SDS011;27321;50.816;6.054;2024-03-25T06:14:25;12.93;;;7.23;;
41627;SDS011;27321;50.816;6.054;2024-03-25T06:17:26;15.37;;;7.43;;
41627;SDS011;27321;50.816;6.054;2024-03-25T06:20:27;17.50;;;7.57;;
41627;SDS011;27321;50.816;6.054;2024-03-25T06:23:28;12.90;;;7.00;;
41627;SDS011;27321;50.816;6.054;2024-03-25T06:26:29;14.65;;;7.35;;
41627;SDS011;27321;50.816;6.054;2024-03-25T06:29:30;13.23;;;7.17;;
41627;SDS011;27321;50.816;6.054;2024-03-25T06:32:31;14.05;;;7.25;;
41627;SDS011;27321;50.816;6.054;2024-03-25T06:35:50;13.57;;;7.50;;
41627;SDS011;27321;50.816;6.054;2024-03-25T06:38:52;12.10;;;7.22;;
41627;SDS011;27321;50.816;6.054;2024-03-25T06:41:53;13.50;;;6.83;;
41627;SDS011;27321;50.816;6.054;2024-03-25T06:44:54;14.77;;;6.77;;
41627;SDS011;27321;50.816;6.054;2024-03-25T06:47:55;13.10;;;6.20;;
41627;SDS011;27321;50.816;6.054;2024-03-25T06:51:01;11.83;;;6.23;;
41627;SDS011;27321;50.816;6.054;2024-03-25T06:54:05;10.40;;;6.27;;
41627;SDS011;27321;50.816;6.054;2024-03-25T06:57:06;13.10;;;6.53;;
41627;SDS011;27321;50.816;6.054;2024-03-25T07:00:07;12.60;;;6.60;;
41627;SDS011;27321;50.816;6.054;2024-03-25T07:03:13;11.30;;;6.30;;
41627;SDS011;27321;50.816;6.054;2024-03-25T07:06:18;14.07;;;6.77;;
41627;SDS011;27321;50.816;6.054;2024-03-25T07:09:19;9.93;;;6.10;;
41627;SDS011;27321;50.816;6.054;2024-03-25T07:12:20;10.52;;;6.20;;
41627;SDS011;27321;50.816;6.054;2024-03-25T07:15:21;10.73;;;6.00;;
41627;SDS011;27321;50.816;6.054;2024-03-25T07:18:22;14.83;;;6.43;;
41627;SDS011;27321;50.816;6.054;2024-03-25T07:21:23;10.30;;;6.32;;
41627;SDS011;27321;50.816;6.054;2024-03-25T07:24:24;8.47;;;5.63;;
41627;SDS011;27321;50.816;6.054;2024-03-25T07:27:25;12.53;;;6.37;;
41627;SDS011;27321;50.816;6.054;2024-03-25T07:30:26;9.47;;;5.73;;
41627;SDS011;27321;50.816;6.054;2024-03-25T07:33:29;8.73;;;5.50;;
41627;SDS011;27321;50.816;6.054;2024-03-25T07:36:30;12.23;;;5.90;;
41627;SDS011;27321;50.816;6.054;2024-03-25T07:39:35;7.77;;;5.03;;
41627;SDS011;27321;50.816;6.054;2024-03-25T07:42:36;7.43;;;5.10;;
41627;SDS011;27321;50.816;6.054;2024-03-25T07:45:37;11.10;;;6.07;;
41627;SDS011;27321;50.816;6.054;2024-03-25T07:48:39;9.77;;;5.43;;
41627;SDS011;27321;50.816;6.054;2024-03-25T07:51:42;8.37;;;5.23;;
41627;SDS011;27321;50.816;6.054;2024-03-25T07:54:43;9.20;;;5.03;;
41627;SDS011;27321;50.816;6.054;2024-03-25T07:57:44;5.53;;;3.93;;
41627;SDS011;27321;50.816;6.054;2024-03-25T08:00:45;6.77;;;4.17;;
41627;SDS011;27321;50.816;6.054;2024-03-25T08:03:46;10.55;;;5.25;;
41627;SDS011;27321;50.816;6.054;2024-03-25T08:06:47;9.87;;;4.97;;
41627;SDS011;27321;50.816;6.054;2024-03-25T08:09:48;8.10;;;4.73;;
41627;SDS011;27321;50.816;6.054;2024-03-25T08:12:49;8.23;;;4.13;;
41627;SDS011;27321;50.816;6.054;2024-03-25T08:15:51;7.18;;;4.00;;
41627;SDS011;27321;50.816;6.054;2024-03-25T08:18:52;5.68;;;4.10;;
41627;SDS011;27321;50.816;6.054;2024-03-25T08:21:53;7.53;;;4.27;;
41627;SDS011;27321;50.816;6.054;2024-03-25T08:24:56;5.80;;;3.67;;
41627;SDS011;27321;50.816;6.054;2024-03-25T08:27:58;5.47;;;3.50;;
41627;SDS011;27321;50.816;6.054;2024-03-25T08:30:59;6.80;;;3.88;;
41627;SDS011;27321;50.816;6.054;2024-03-25T08:34:02;9.43;;;3.40;;
41627;SDS011;27321;50.816;6.054;2024-03-25T08:37:04;4.77;;;3.47;;
41627;SDS011;27321;50.816;6.054;2024-03-25T08:40:05;5.43;;;3.00;;
41627;SDS011;27321;50.816;6.054;2024-03-25T08:43:07;4.40;;;2.60;;
41627;SDS011;27321;50.816;6.054;2024-03-25T08:46:08;4.07;;;3.10;;
41627;SDS011;27321;50.816;6.054;2024-03-25T08:49:09;3.73;;;2.90;;
41627;SDS011;27321;50.816;6.054;2024-03-25T08:52:10;3.43;;;3.00;;
41627;SDS011;27321;50.816;6.054;2024-03-25T08:55:11;4.28;;;2.80;;
41627;SDS011;27321;50.816;6.054;2024-03-25T08:58:13;3.80;;;2.53;;
41627;SDS011;27321;50.816;6.054;2024-03-25T09:01:14;2.67;;;2.38;;
41627;SDS011;27321;50.816;6.054;2024-03-25T09:04:17;3.93;;;2.70;;
41627;SDS011;27321;50.816;6.054;2024-03-25T09:07:19;4.35;;;2.72;;
41627;SDS011;27321;50.816;6.054;2024-03-25T09:10:22;3.00;;;2.27;;
41627;SDS011;27321;50.816;6.054;2024-03-25T09:13:41;2.87;;;1.93;;
41627;SDS011;27321;50.816;6.054;2024-03-25T09:16:42;2.77;;;2.00;;
41627;SDS011;27321;50.816;6.054;2024-03-25T09:19:43;2.53;;;1.87;;
41627;SDS011;27321;50.816;6.054;2024-03-25T09:22:44;2.37;;;1.80;;
41627;SDS011;27321;50.816;6.054;2024-03-25T09:25:55;2.95;;;1.60;;
41627;SDS011;27321;50.816;6.054;2024-03-25T09:28:56;3.23;;;1.33;;
41627;SDS011;27321;50.816;6.054;2024-03-25T09:31:57;1.37;;;1.10;;
41627;SDS011;27321;50.816;6.054;2024-03-25T09:34:58;1.50;;;1.00;;
41627;SDS011;27321;50.816;6.054;2024-03-25T09:37:58;2.20;;;1.30;;
41627;SDS011;27321;50.816;6.054;2024-03-25T09:40:59;2.40;;;1.00;;
41627;SDS011;27321;50.816;6.054;2024-03-25T09:44:03;1.17;;;0.73;;
41627;SDS011;27321;50.816;6.054;2024-03-25T09:47:07;3.13;;;1.33;;
41627;SDS011;27321;50.816;6.054;2024-03-25T09:50:10;1.97;;;1.00;;
41627;SDS011;27321;50.816;6.054;2024-03-25T09:53:13;1.87;;;1.07;;
41627;SDS011;27321;50.816;6.054;2024-03-25T09:56:14;1.05;;;0.90;;
41627;SDS011;27321;50.816;6.054;2024-03-25T09:59:15;0.95;;;0.95;;
41627;SDS011;27321;50.816;6.054;2024-03-25T10:02:17;2.58;;;1.27;;
41627;SDS011;27321;50.816;6.054;2024-03-25T10:08:20;1.83;;;0.90;;
41627;SDS011;27321;50.816;6.054;2024-03-25T10:11:22;1.50;;;0.80;;
41627;SDS011;27321;50.816;6.054;2024-03-25T10:14:23;1.40;;;0.80;;
41627;SDS011;27321;50.816;6.054;2024-03-25T10:17:24;1.55;;;0.80;;
41627;SDS011;27321;50.816;6.054;2024-03-25T10:20:25;0.80;;;0.70;;
41627;SDS011;27321;50.816;6.054;2024-03-25T10:23:26;1.80;;;0.80;;
41627;SDS011;27321;50.816;6.054;2024-03-25T10:26:28;1.70;;;0.70;;
41627;SDS011;27321;50.816;6.054;2024-03-25T10:29:31;1.90;;;0.73;;
41627;SDS011;27321;50.816;6.054;2024-03-25T10:32:32;1.00;;;0.60;;
41627;SDS011;27321;50.816;6.054;2024-03-25T10:35:36;1.13;;;0.60;;
41627;SDS011;27321;50.816;6.054;2024-03-25T10:38:41;2.07;;;0.60;;
41627;SDS011;27321;50.816;6.054;2024-03-25T10:41:44;1.20;;;0.70;;
41627;SDS011;27321;50.816;6.054;2024-03-25T10:44:48;1.10;;;0.60;;
41627;SDS011;27321;50.816;6.054;2024-03-25T10:47:52;1.40;;;0.70;;
41627;SDS011;27321;50.816;6.054;2024-03-25T10:50:58;0.73;;;0.40;;
41627;SDS011;27321;50.816;6.054;2024-03-25T10:54:03;0.40;;;0.40;;
41627;SDS011;27321;50.816;6.054;2024-03-25T10:57:04;0.93;;;0.50;;
41627;SDS011;27321;50.816;6.054;2024-03-25T11:00:08;1.13;;;0.40;;
41627;SDS011;27321;50.816;6.054;2024-03-25T11:03:12;0.73;;;0.45;;
41627;SDS011;27321;50.816;6.054;2024-03-25T11:06:14;1.20;;;0.80;;
41627;SDS011;27321;50.816;6.054;2024-03-25T11:09:23;1.17;;;0.57;;
41627;SDS011;27321;50.816;6.054;2024-03-25T11:12:31;1.67;;;0.60;;
41627;SDS011;27321;50.816;6.054;2024-03-25T11:15:40;1.13;;;0.43;;
41627;SDS011;27321;50.816;6.054;2024-03-25T11:18:50;1.60;;;0.60;;
41627;SDS011;27321;50.816;6.054;2024-03-25T11:21:52;0.60;;;0.40;;
41627;SDS011;27321;50.816;6.054;2024-03-25T11:24:54;1.27;;;0.60;;
41627;SDS011;27321;50.816;6.054;2024-03-25T11:27:55;0.93;;;0.60;;
41627;SDS011;27321;50.816;6.054;2024-03-25T11:30:56;1.48;;;0.45;;
41627;SDS011;27321;50.816;6.054;2024-03-25T11:33:58;2.45;;;0.57;;
41627;SDS011;27321;50.816;6.054;2024-03-25T11:37:08;1.93;;;0.60;;
41627;SDS011;27321;50.816;6.054;2024-03-25T11:40:10;2.47;;;0.60;;
41627;SDS011;27321;50.816;6.054;2024-03-25T11:43:18;1.23;;;0.80;;
41627;SDS011;27321;50.816;6.054;2024-03-25T11:46:19;0.70;;;0.43;;
41627;SDS011;27321;50.816;6.054;2024-03-25T11:49:24;2.20;;;0.90;;
41627;SDS011;27321;50.816;6.054;2024-03-25T11:52:32;1.10;;;0.70;;
41627;SDS011;27321;50.816;6.054;2024-03-25T11:55:32;1.53;;;0.80;;
41627;SDS011;27321;50.816;6.054;2024-03-25T11:58:34;1.98;;;0.65;;
41627;SDS011;27321;50.816;6.054;2024-03-25T12:01:35;0.88;;;0.63;;
41627;SDS011;27321;50.816;6.054;2024-03-25T12:04:41;1.43;;;0.63;;
41627;SDS011;27321;50.816;6.054;2024-03-25T12:07:46;2.10;;;0.80;;
41627;SDS011;27321;50.816;6.054;2024-03-25T12:10:46;3.30;;;0.97;;
41627;SDS011;27321;50.816;6.054;2024-03-25T12:14:06;1.30;;;0.70;;
41627;SDS011;27321;50.816;6.054;2024-03-25T12:17:07;1.13;;;0.47;;
41627;SDS011;27321;50.816;6.054;2024-03-25T12:20:09;0.60;;;0.57;;
41627;SDS011;27321;50.816;6.054;2024-03-25T12:23:16;1.43;;;1.00;;
41627;SDS011;27321;50.816;6.054;2024-03-25T12:26:17;0.75;;;0.60;;
41627;SDS011;27321;50.816;6.054;2024-03-25T12:29:18;1.35;;;0.70;;
41627;SDS011;27321;50.816;6.054;2024-03-25T12:32:19;1.95;;;0.80;;
41627;SDS011;27321;50.816;6.054;2024-03-25T12:35:20;1.38;;;0.70;;
41627;SDS011;27321;50.816;6.054;2024-03-25T12:38:25;1.10;;;0.60;;
41627;SDS011;27321;50.816;6.054;2024-03-25T12:41:28;0.60;;;0.50;;
41627;SDS011;27321;50.816;6.054;2024-03-25T12:44:29;0.50;;;0.50;;
41627;SDS011;27321;50.816;6.054;2024-03-25T12:47:30;1.15;;;0.70;;
41627;SDS011;27321;50.816;6.054;2024-03-25T12:50:34;1.00;;;0.80;;
41627;SDS011;27321;50.816;6.054;2024-03-25T12:53:35;1.80;;;1.10;;
41627;SDS011;27321;50.816;6.054;2024-03-25T12:56:36;1.52;;;0.90;;
41627;SDS011;27321;50.816;6.054;2024-03-25T12:59:37;0.82;;;0.75;;
41627;SDS011;27321;50.816;6.054;2024-03-25T13:02:38;3.72;;;1.10;;
41627;SDS011;27321;50.816;6.054;2024-03-25T13:05:39;2.83;;;1.13;;
41627;SDS011;27321;50.816;6.054;2024-03-25T13:08:43;1.93;;;0.90;;
41627;SDS011;27321;50.816;6.054;2024-03-25T13:11:44;1.77;;;1.20;;
41627;SDS011;27321;50.816;6.054;2024-03-25T13:14:45;2.55;;;1.20;;
41627;SDS011;27321;50.816;6.054;2024-03-25T13:17:46;2.72;;;0.85;;
41627;SDS011;27321;50.816;6.054;2024-03-25T13:20:47;3.92;;;1.27;;
41627;SDS011;27321;50.816;6.054;2024-03-25T13:23:48;1.23;;;1.00;;
41627;SDS011;27321;50.816;6.054;2024-03-25T13:26:49;1.90;;;0.93;;
41627;SDS011;27321;50.816;6.054;2024-03-25T13:29:50;3.72;;;1.38;;
41627;SDS011;27321;50.816;6.054;2024-03-25T13:32:52;1.67;;;0.87;;
41627;SDS011;27321;50.816;6.054;2024-03-25T13:35:53;2.03;;;1.27;;
41627;SDS011;27321;50.816;6.054;2024-03-25T13:38:54;2.30;;;0.98;;
41627;SDS011;27321;50.816;6.054;2024-03-25T13:41:55;4.40;;;1.58;;
41627;SDS011;27321;50.816;6.054;2024-03-25T13:44:56;4.57;;;1.73;;
41627;SDS011;27321;50.816;6.054;2024-03-25T13:47:57;3.50;;;1.40;;
41627;SDS011;27321;50.816;6.054;2024-03-25T13:50:58;3.03;;;1.27;;
41627;SDS011;27321;50.816;6.054;2024-03-25T13:53:59;3.13;;;1.67;;
41627;SDS011;27321;50.816;6.054;2024-03-25T13:57:02;2.33;;;1.42;;
41627;SDS011;27321;50.816;6.054;2024-03-25T14:00:03;2.43;;;1.37;;
41627;SDS011;27321;50.816;6.054;2024-03-25T14:03:12;2.30;;;1.30;;
41627;SDS011;27321;50.816;6.054;2024-03-25T14:06:15;3.00;;;1.30;;
41627;SDS011;27321;50.816;6.054;2024-03-25T14:09:34;2.30;;;1.47;;
41627;SDS011;27321;50.816;6.054;2024-03-25T14:12:37;3.07;;;1.50;;
41627;SDS011;27321;50.816;6.054;2024-03-25T14:15:38;1.35;;;1.10;;
41627;SDS011;27321;50.816;6.054;2024-03-25T14:18:39;3.13;;;1.45;;
41627;SDS011;27321;50.816;6.054;2024-03-25T14:21:39;3.42;;;1.50;;
41627;SDS011;27321;50.816;6.054;2024-03-25T14:24:41;2.60;;;1.33;;
41627;SDS011;27321;50.816;6.054;2024-03-25T14:27:42;3.08;;;1.65;;
41627;SDS011;27321;50.816;6.054;2024-03-25T14:30:43;4.88;;;2.60;;
41627;SDS011;27321;50.816;6.054;2024-03-25T14:33:44;4.10;;;1.88;;
41627;SDS011;27321;50.816;6.054;2024-03-25T14:36:45;1.85;;;1.63;;
41627;SDS011;27321;50.816;6.054;2024-03-25T14:39:47;4.20;;;1.63;;
41627;SDS011;27321;50.816;6.054;2024-03-25T14:42:48;3.77;;;1.67;;
41627;SDS011;27321;50.816;6.054;2024-03-25T14:45:48;2.75;;;1.27;;
41627;SDS011;27321;50.816;6.054;2024-03-25T14:48:50;2.25;;;1.05;;
41627;SDS011;27321;50.816;6.054;2024-03-25T14:51:51;6.05;;;1.48;;
41627;SDS011;27321;50.816;6.054;2024-03-25T14:54:51;2.08;;;1.23;;
41627;SDS011;27321;50.816;6.054;2024-03-25T14:57:56;5.10;;;1.50;;
41627;SDS011;27321;50.816;6.054;2024-03-25T15:00:57;2.47;;;1.13;;
41627;SDS011;27321;50.816;6.054;2024-03-25T15:03:58;6.03;;;1.73;;
41627;SDS011;27321;50.816;6.054;2024-03-25T15:06:59;3.78;;;1.63;;
41627;SDS011;27321;50.816;6.054;2024-03-25T15:10:02;3.77;;;1.37;;
41627;SDS011;27321;50.816;6.054;2024-03-25T15:13:03;2.25;;;1.52;;
41627;SDS011;27321;50.816;6.054;2024-03-25T15:16:07;3.08;;;1.35;;
41627;SDS011;27321;50.816;6.054;2024-03-25T15:19:11;2.23;;;1.20;;
41627;SDS011;27321;50.816;6.054;2024-03-25T15:25:14;2.40;;;1.13;;
41627;SDS011;27321;50.816;6.054;2024-03-25T15:28:18;3.08;;;1.30;;
41627;SDS011;27321;50.816;6.054;2024-03-25T15:31:19;2.80;;;1.20;;
41627;SDS011;27321;50.816;6.054;2024-03-25T15:34:20;2.67;;;1.15;;
41627;SDS011;27321;50.816;6.054;2024-03-25T15:37:22;1.42;;;0.90;;
41627;SDS011;27321;50.816;6.054;2024-03-25T15:40:23;2.03;;;1.52;;
41627;SDS011;27321;50.816;6.054;2024-03-25T15:43:25;2.92;;;1.40;;
41627;SDS011;27321;50.816;6.054;2024-03-25T15:46:26;2.10;;;1.30;;
41627;SDS011;27321;50.816;6.054;2024-03-25T15:49:32;2.93;;;1.40;;
41627;SDS011;27321;50.816;6.054;2024-03-25T15:52:33;1.63;;;0.80;;
41627;SDS011;27321;50.816;6.054;2024-03-25T15:55:35;2.80;;;1.20;;
41627;SDS011;27321;50.816;6.054;2024-03-25T15:58:36;1.58;;;0.90;;
41627;SDS011;27321;50.816;6.054;2024-03-25T16:01:37;3.60;;;1.38;;
41627;SDS011;27321;50.816;6.054;2024-03-25T16:04:38;2.40;;;1.10;;
41627;SDS011;27321;50.816;6.054;2024-03-25T16:07:39;2.95;;;0.85;;
41627;SDS011;27321;50.816;6.054;2024-03-25T16:10:40;2.25;;;0.90;;
41627;SDS011;27321;50.816;6.054;2024-03-25T16:13:41;2.35;;;1.05;;
41627;SDS011;27321;50.816;6.054;2024-03-25T16:16:43;1.98;;;1.08;;
41627;SDS011;27321;50.816;6.054;2024-03-25T16:19:44;4.28;;;0.90;;
41627;SDS011;27321;50.816;6.054;2024-03-25T16:22:48;1.23;;;0.85;;
41627;SDS011;27321;50.816;6.054;2024-03-25T16:25:50;0.70;;;0.70;;
41627;SDS011;27321;50.816;6.054;2024-03-25T16:28:52;1.60;;;0.80;;
41627;SDS011;27321;50.816;6.054;2024-03-25T16:31:52;2.70;;;0.82;;
41627;SDS011;27321;50.816;6.054;2024-03-25T16:34:53;0.50;;;0.50;;
41627;SDS011;27321;50.816;6.054;2024-03-25T16:37:55;2.13;;;0.70;;
41627;SDS011;27321;50.816;6.054;2024-03-25T16:40:58;1.63;;;0.77;;
41627;SDS011;27321;50.816;6.054;2024-03-25T16:47:03;0.93;;;0.80;;
41627;SDS011;27321;50.816;6.054;2024-03-25T16:50:04;1.20;;;0.90;;
41627;SDS011;27321;50.816;6.054;2024-03-25T16:53:07;1.57;;;0.97;;
41627;SDS011;27321;50.816;6.054;2024-03-25T16:56:08;1.35;;;1.00;;
41627;SDS011;27321;50.816;6.054;2024-03-25T16:59:09;1.73;;;1.10;;
41627;SDS011;27321;50.816;6.054;2024-03-25T17:02:09;1.37;;;1.10;;
41627;SDS011;27321;50.816;6.054;2024-03-25T17:05:13;1.40;;;0.90;;
41627;SDS011;27321;50.816;6.054;2024-03-25T17:08:14;1.58;;;1.23;;
41627;SDS011;27321;50.816;6.054;2024-03-25T17:11:16;1.75;;;1.00;;
41627;SDS011;27321;50.816;6.054;2024-03-25T17:14:17;1.20;;;1.10;;
41627;SDS011;27321;50.816;6.054;2024-03-25T17:17:18;3.45;;;1.30;;
41627;SDS011;27321;50.816;6.054;2024-03-25T17:20:19;1.30;;;1.15;;
41627;SDS011;27321;50.816;6.054;2024-03-25T17:23:25;1.93;;;1.30;;
41627;SDS011;27321;50.816;6.054;2024-03-25T17:26:26;2.83;;;0.97;;
41627;SDS011;27321;50.816;6.054;2024-03-25T17:29:28;3.63;;;1.10;;
41627;SDS011;27321;50.816;6.054;2024-03-25T17:32:32;1.53;;;0.87;;
41627;SDS011;27321;50.816;6.054;2024-03-25T17:35:35;1.93;;;0.80;;
41627;SDS011;27321;50.816;6.054;2024-03-25T17:38:36;1.87;;;1.10;;
41627;SDS011;27321;50.816;6.054;2024-03-25T17:41:37;2.33;;;1.30;;
41627;SDS011;27321;50.816;6.054;2024-03-25T17:44:39;1.98;;;1.20;;
41627;SDS011;27321;50.816;6.054;2024-03-25T17:47:39;3.97;;;1.15;;
41627;SDS011;27321;50.816;6.054;2024-03-25T17:50:40;1.10;;;0.87;;
41627;SDS011;27321;50.816;6.054;2024-03-25T17:53:47;1.13;;;0.70;;
41627;SDS011;27321;50.816;6.054;2024-03-25T17:56:48;1.37;;;1.00;;
41627;SDS011;27321;50.816;6.054;2024-03-25T17:59:49;1.13;;;0.73;;
41627;SDS011;27321;50.816;6.054;2024-03-25T18:02:50;0.95;;;0.90;;
41627;SDS011;27321;50.816;6.054;2024-03-25T18:05:53;1.37;;;0.77;;
41627;SDS011;27321;50.816;6.054;2024-03-25T18:08:54;0.70;;;0.70;;
41627;SDS011;27321;50.816;6.054;2024-03-25T18:11:55;0.90;;;0.70;;
41627;SDS011;27321;50.816;6.054;2024-03-25T18:14:56;2.07;;;0.97;;
41627;SDS011;27321;50.816;6.054;2024-03-25T18:17:58;2.67;;;0.90;;
41627;SDS011;27321;50.816;6.054;2024-03-25T18:20:59;2.13;;;0.90;;
41627;SDS011;27321;50.816;6.054;2024-03-25T18:23:59;0.87;;;0.87;;
41627;SDS011;27321;50.816;6.054;2024-03-25T18:27:05;2.40;;;1.60;;